createdAt,value
2023-02-03T00:03:15.351Z,16.20
2023-02-03T00:08:17.902Z,16.75
2023-02-03T00:13:19.771Z,22.60
2023-02-03T00:18:21.664Z,16.47
2023-02-03T00:23:23.588Z,17.73
2023-02-03T00:28:25.456Z,21.93
2023-02-03T00:33:27.341Z,21.33
2023-02-03T00:38:29.268Z,22.03
2023-02-03T00:43:31.144Z,20.63
2023-02-03T00:48:33.048Z,16.03
2023-02-03T00:53:35.000Z,21.33
2023-02-03T00:58:36.907Z,22.00
2023-02-03T01:03:38.792Z,16.13
2023-02-03T01:08:40.780Z,21.40
2023-02-03T01:13:42.806Z,20.80
2023-02-03T01:18:44.791Z,22.27
2023-02-03T01:23:46.751Z,15.52
2023-02-03T01:28:53.304Z,20.87
2023-02-03T01:33:55.513Z,20.65
2023-02-03T01:38:57.385Z,22.15
2023-02-03T01:43:59.851Z,21.40
2023-02-03T01:49:07.675Z,21.70
2023-02-03T01:54:10.484Z,22.70
2023-02-03T01:59:12.433Z,22.50
2023-02-03T02:04:14.307Z,21.63
2023-02-03T02:09:16.218Z,20.93
2023-02-03T02:14:18.113Z,20.40
2023-02-03T02:19:44.363Z,22.37
2023-02-03T02:25:04.321Z,22.40
2023-02-03T02:30:36.920Z,22.40
2023-02-03T02:36:06.133Z,21.92
2023-02-03T02:41:10.815Z,21.98
2023-02-03T02:46:37.669Z,20.90
2023-02-03T02:51:39.738Z,22.15
2023-02-03T02:56:41.601Z,22.17
2023-02-03T03:01:43.505Z,16.93
2023-02-03T03:06:48.257Z,22.27
2023-02-03T03:12:02.115Z,21.15
2023-02-03T03:17:06.159Z,21.08
2023-02-03T03:22:09.299Z,23.08
2023-02-03T03:27:23.665Z,23.10
2023-02-03T03:32:25.553Z,21.48
2023-02-03T03:37:37.298Z,21.83
2023-02-03T03:42:45.751Z,23.92
2023-02-03T03:47:48.518Z,21.13
2023-02-03T03:58:00.964Z,21.10
2023-02-03T04:03:07.289Z,21.02
2023-02-03T04:08:09.331Z,21.38
2023-02-03T04:13:12.117Z,15.75
2023-02-03T04:18:14.715Z,21.23
2023-02-03T04:23:16.912Z,20.48
2023-02-03T04:28:19.022Z,20.35
2023-02-03T04:33:20.885Z,19.13
2023-02-03T04:38:22.671Z,19.60
2023-02-03T04:43:24.498Z,19.80
2023-02-03T04:48:26.382Z,20.50
2023-02-03T04:53:28.135Z,15.27
2023-02-03T04:58:29.884Z,20.30
2023-02-03T05:03:31.678Z,20.77
2023-02-03T05:08:33.427Z,20.13
2023-02-03T05:13:35.186Z,19.90
2023-02-03T05:18:37.008Z,19.33
2023-02-03T05:23:38.742Z,20.77
2023-02-03T05:28:40.493Z,19.52
2023-02-03T05:33:42.268Z,17.73
2023-02-03T05:38:44.053Z,17.45
2023-02-03T05:43:45.834Z,18.37
2023-02-03T05:48:47.618Z,17.27
2023-02-03T05:53:49.363Z,17.33
2023-02-03T05:58:51.097Z,17.47
2023-02-03T06:03:52.954Z,17.17
2023-02-03T06:08:54.792Z,17.37
2023-02-03T06:13:56.747Z,17.60
2023-02-03T06:18:58.490Z,15.53
2023-02-03T06:24:00.228Z,17.10
2023-02-03T06:29:02.053Z,15.95
2023-02-03T06:34:03.814Z,16.13
2023-02-03T06:39:05.548Z,15.88
2023-02-03T06:44:07.657Z,15.53
2023-02-03T06:49:09.408Z,15.40
2023-02-03T06:54:11.815Z,16.27
2023-02-03T06:59:13.813Z,15.02
2023-02-03T07:04:15.620Z,14.97
2023-02-03T07:09:17.378Z,15.30
2023-02-03T07:14:19.134Z,15.55
2023-02-03T07:19:20.878Z,15.37
2023-02-03T07:24:22.624Z,15.45
2023-02-03T07:29:24.404Z,16.17
2023-02-03T07:34:26.138Z,15.00
2023-02-03T07:39:27.909Z,15.10
2023-02-03T07:44:29.670Z,14.88
2023-02-03T07:49:31.419Z,14.82
2023-02-03T07:54:33.183Z,13.55
2023-02-03T07:59:34.911Z,14.15
2023-02-03T08:04:36.802Z,15.00
2023-02-03T08:09:38.622Z,14.93
2023-02-03T08:14:40.369Z,14.20
2023-02-03T08:19:42.107Z,14.38
2023-02-03T08:24:44.270Z,13.65
2023-02-03T08:29:46.045Z,12.70
2023-02-03T08:34:48.595Z,12.97
2023-02-03T08:39:50.880Z,13.10
2023-02-03T08:44:52.642Z,13.48
2023-02-03T08:49:54.376Z,13.18
2023-02-03T08:54:56.154Z,12.57
2023-02-03T08:59:57.886Z,13.48
2023-02-03T09:04:59.720Z,13.32
2023-02-03T09:10:01.494Z,13.33
2023-02-03T09:15:04.948Z,13.35
2023-02-03T09:20:07.390Z,14.10
2023-02-03T09:25:09.151Z,14.63
2023-02-03T09:30:11.672Z,14.17
2023-02-03T09:35:13.477Z,15.02
2023-02-03T09:40:28.220Z,11.77
2023-02-03T09:45:30.698Z,14.43
2023-02-03T09:50:33.927Z,14.75
2023-02-03T09:55:42.289Z,14.52
2023-02-03T10:00:51.579Z,14.93
2023-02-03T10:06:14.836Z,14.32
2023-02-03T10:11:22.255Z,14.75
2023-02-03T10:16:28.486Z,13.52
2023-02-03T10:21:39.282Z,13.27
2023-02-03T10:26:41.078Z,12.75
2023-02-03T10:31:42.979Z,12.23
2023-02-03T10:37:46.358Z,11.20
2023-02-03T10:42:48.203Z,13.05
2023-02-03T10:47:53.814Z,12.40
2023-02-03T10:53:20.137Z,12.80
2023-02-03T10:58:28.621Z,13.30
2023-02-03T11:03:30.430Z,12.32
2023-02-03T11:08:32.497Z,13.23
2023-02-03T11:13:34.304Z,12.90
2023-02-03T11:18:56.176Z,12.80
2023-02-03T11:24:05.082Z,11.93
2023-02-03T11:29:06.939Z,13.52
2023-02-03T11:34:19.562Z,12.87
2023-02-03T11:39:29.248Z,12.40
2023-02-03T11:44:31.026Z,13.88
2023-02-03T11:49:51.359Z,13.32
2023-02-03T11:55:29.291Z,13.00
2023-02-03T12:00:54.942Z,12.43
2023-02-03T12:06:14.525Z,12.88
2023-02-03T12:11:37.094Z,12.20
2023-02-03T12:16:47.897Z,14.23
2023-02-03T12:21:51.739Z,12.00
2023-02-03T12:27:24.323Z,12.70
2023-02-03T12:32:32.400Z,12.60
2023-02-03T12:37:39.949Z,12.45
2023-02-03T12:42:47.911Z,14.60
2023-02-03T12:48:01.068Z,12.27
2023-02-03T12:58:39.963Z,12.27
2023-02-03T13:03:56.151Z,12.10
2023-02-03T13:09:14.212Z,13.60
2023-02-03T13:14:23.210Z,11.55
2023-02-03T13:19:26.738Z,11.30
2023-02-03T13:24:28.682Z,9.68
2023-02-03T13:29:54.360Z,10.20
2023-02-03T13:35:33.240Z,10.30
2023-02-03T13:41:00.135Z,9.85
2023-02-03T13:46:02.111Z,11.02
2023-02-03T13:51:06.360Z,11.07
2023-02-03T13:56:09.055Z,11.63
2023-02-03T14:01:30.592Z,12.82
2023-02-03T14:06:38.472Z,12.35
2023-02-03T14:11:40.489Z,11.52
2023-02-03T14:16:54.677Z,11.13
2023-02-03T14:22:04.216Z,12.23
2023-02-03T14:27:16.375Z,12.93
2023-02-03T14:32:18.096Z,12.80
2023-02-03T14:37:23.644Z,13.63
2023-02-03T14:43:04.895Z,12.90
2023-02-03T14:48:11.350Z,13.55
2023-02-03T14:53:45.455Z,10.30
2023-02-03T15:04:13.914Z,13.85
2023-02-03T15:09:32.080Z,13.10
2023-02-03T15:14:33.919Z,14.10
2023-02-03T15:19:37.979Z,14.47
2023-02-03T15:24:39.823Z,14.27
2023-02-03T15:29:41.699Z,14.10
2023-02-03T15:34:52.205Z,14.63
2023-02-03T15:40:07.130Z,14.13
2023-02-03T15:45:29.366Z,14.38
2023-02-03T15:50:46.097Z,14.45
2023-02-03T15:55:52.442Z,15.10
2023-02-03T16:01:02.086Z,15.10
2023-02-03T16:06:25.511Z,15.23
2023-02-03T16:11:30.397Z,14.27
2023-02-03T16:17:02.755Z,14.40
2023-02-03T16:22:30.309Z,13.10
2023-02-03T16:27:33.554Z,14.40
2023-02-03T16:32:35.561Z,9.83
2023-02-03T16:37:43.799Z,13.00
2023-02-03T16:42:45.609Z,13.15
2023-02-03T16:47:47.396Z,12.93
2023-02-03T16:52:49.366Z,14.13
2023-02-03T16:57:51.178Z,13.23
2023-02-03T17:02:53.123Z,13.50
2023-02-03T17:07:55.044Z,11.40
2023-02-03T17:12:56.844Z,8.50
2023-02-03T17:17:58.896Z,5.70
2023-02-03T17:23:00.802Z,6.15
2023-02-03T17:28:06.267Z,5.63
2023-02-03T17:33:08.457Z,8.30
2023-02-03T17:38:13.288Z,8.38
2023-02-03T17:53:53.487Z,7.82
2023-02-03T17:58:56.328Z,7.03
2023-02-03T18:03:59.587Z,6.70
2023-02-03T18:09:08.502Z,7.13
2023-02-03T18:14:10.471Z,7.22
2023-02-03T18:19:13.749Z,7.13
2023-02-03T18:24:15.551Z,6.57
2023-02-03T18:29:17.900Z,5.60
2023-02-03T18:34:19.775Z,5.90
2023-02-03T18:39:21.637Z,4.27
2023-02-03T18:44:23.458Z,4.50
2023-02-03T18:49:25.521Z,6.10
2023-02-03T18:54:28.766Z,7.00
2023-02-03T18:59:32.275Z,7.70
2023-02-03T19:04:34.076Z,7.47
2023-02-03T19:09:35.863Z,7.93
2023-02-03T19:14:37.764Z,7.45
2023-02-03T19:19:39.575Z,7.03
2023-02-03T19:24:41.975Z,6.68
2023-02-03T19:29:43.911Z,7.30
2023-02-03T19:34:45.812Z,6.10
2023-02-03T19:39:47.592Z,5.10
2023-02-03T19:44:49.340Z,5.90
2023-02-03T19:49:51.081Z,6.23
2023-02-03T19:54:52.992Z,5.67
2023-02-03T19:59:54.865Z,5.93
2023-02-03T20:04:56.817Z,5.80
2023-02-03T20:09:58.921Z,6.00
2023-02-03T20:15:00.815Z,5.65
2023-02-03T20:20:02.682Z,6.23
2023-02-03T20:25:04.970Z,6.10
2023-02-03T20:30:07.252Z,5.00
2023-02-03T20:35:09.206Z,6.55
2023-02-03T20:40:15.962Z,4.90
2023-02-03T20:45:18.335Z,7.43
2023-02-03T20:50:25.023Z,7.13
2023-02-03T20:55:28.831Z,5.85
2023-02-03T21:00:30.899Z,5.57
2023-02-03T21:05:35.853Z,5.82
2023-02-03T21:10:37.750Z,5.57
2023-02-03T21:15:39.628Z,5.17
2023-02-03T21:20:41.498Z,4.90
2023-02-03T21:25:43.354Z,5.17
2023-02-03T21:30:45.256Z,4.03
2023-02-03T21:35:47.216Z,4.73
2023-02-03T21:40:49.127Z,5.47
2023-02-03T21:45:51.142Z,4.80
2023-02-03T21:50:57.199Z,5.10
2023-02-03T21:56:17.144Z,4.82
2023-02-03T22:01:19.850Z,5.22
2023-02-03T22:11:25.047Z,5.75
2023-02-03T22:16:26.968Z,5.20
2023-02-03T22:21:28.856Z,5.93
2023-02-03T22:26:30.722Z,3.77
2023-02-03T22:31:32.769Z,5.33
2023-02-03T22:36:34.787Z,6.78
2023-02-03T22:41:36.740Z,5.93
2023-02-03T22:46:38.705Z,5.77
2023-02-03T22:51:40.586Z,6.17
2023-02-03T22:56:42.403Z,7.03
2023-02-03T23:01:44.303Z,5.63
2023-02-03T23:06:46.088Z,6.00
2023-02-03T23:11:47.867Z,6.47
2023-02-03T23:16:49.745Z,6.53
2023-02-03T23:21:51.671Z,7.10
2023-02-03T23:26:53.647Z,7.53
2023-02-03T23:31:55.598Z,7.50
2023-02-03T23:36:57.576Z,4.97
2023-02-03T23:41:59.450Z,6.60
2023-02-03T23:47:01.285Z,7.33
2023-02-03T23:52:03.233Z,8.00
2023-02-03T23:57:05.190Z,6.60
